createdAt,value
2022-08-26T00:00:27.006Z,27.27
2022-08-26T00:01:30.004Z,27.26
2022-08-26T00:02:31.861Z,27.26
2022-08-26T00:03:36.435Z,27.25
2022-08-26T00:04:38.414Z,27.26
2022-08-26T00:05:41.778Z,27.25
2022-08-26T00:06:46.282Z,27.26
2022-08-26T00:07:48.513Z,27.26
2022-08-26T00:08:51.445Z,27.24
2022-08-26T00:09:54.463Z,27.24
2022-08-26T00:10:57.171Z,27.17
2022-08-26T00:12:01.832Z,27.24
2022-08-26T00:13:04.900Z,27.23
2022-08-26T00:14:06.774Z,27.23
2022-08-26T00:15:11.803Z,27.22
2022-08-26T00:16:13.614Z,27.23
2022-08-26T00:17:15.427Z,27.23
2022-08-26T00:18:22.700Z,27.19
2022-08-26T00:19:24.811Z,27.23
2022-08-26T00:20:29.956Z,27.20
2022-08-26T00:21:32.640Z,27.11
2022-08-26T00:22:34.422Z,27.21
2022-08-26T00:23:36.871Z,27.19
2022-08-26T00:24:38.843Z,27.19
2022-08-26T00:25:42.573Z,27.19
2022-08-26T00:26:44.667Z,27.18
2022-08-26T00:27:47.805Z,27.18
2022-08-26T00:28:50.168Z,27.18
2022-08-26T00:29:52.027Z,27.18
2022-08-26T00:30:55.462Z,27.18
2022-08-26T00:31:57.892Z,27.17
2022-08-26T00:33:00.745Z,27.16
2022-08-26T00:34:03.974Z,27.15
2022-08-26T00:35:06.463Z,27.09
2022-08-26T00:36:14.440Z,27.17
2022-08-26T00:37:22.332Z,27.19
2022-08-26T00:38:24.935Z,27.16
2022-08-26T00:39:26.812Z,27.16
2022-08-26T00:40:36.439Z,27.15
2022-08-26T00:41:40.741Z,27.06
2022-08-26T00:42:45.875Z,27.16
2022-08-26T00:43:48.145Z,27.16
2022-08-26T00:44:50.757Z,27.14
2022-08-26T00:46:01.258Z,27.15
2022-08-26T00:47:08.034Z,27.08
2022-08-26T00:48:10.359Z,27.16
2022-08-26T00:49:26.431Z,27.17
2022-08-26T00:50:36.182Z,27.18
2022-08-26T00:51:46.475Z,27.18
2022-08-26T00:52:48.870Z,27.17
2022-08-26T00:54:02.895Z,27.16
2022-08-26T00:55:12.194Z,27.15
2022-08-26T00:56:28.570Z,27.17
2022-08-26T00:57:31.984Z,27.16
2022-08-26T00:58:36.659Z,27.14
2022-08-26T00:59:39.255Z,27.12
2022-08-26T01:00:41.100Z,27.11
2022-08-26T01:01:47.193Z,27.10
2022-08-26T01:02:50.084Z,27.09
2022-08-26T01:03:52.798Z,27.07
2022-08-26T01:04:58.075Z,27.06
2022-08-26T01:06:01.572Z,27.07
2022-08-26T01:07:05.103Z,27.07
2022-08-26T01:08:07.625Z,27.03
2022-08-26T01:09:09.558Z,27.02
2022-08-26T01:10:16.994Z,27.04
2022-08-26T01:11:20.006Z,27.06
2022-08-26T01:12:23.567Z,27.05
2022-08-26T01:13:27.763Z,27.06
2022-08-26T01:14:35.328Z,27.03
2022-08-26T01:15:46.043Z,27.01
2022-08-26T01:16:49.293Z,27.07
2022-08-26T01:17:51.679Z,27.05
2022-08-26T01:19:03.109Z,27.04
2022-08-26T01:20:21.861Z,27.05
2022-08-26T01:21:48.159Z,27.14
2022-08-26T01:22:56.034Z,27.14
2022-08-26T01:23:59.595Z,27.08
2022-08-26T01:25:03.597Z,27.05
2022-08-26T01:26:18.261Z,27.03
2022-08-26T01:27:22.195Z,27.06
2022-08-26T01:28:29.281Z,27.03
2022-08-26T01:29:33.673Z,27.02
2022-08-26T01:30:36.860Z,27.01
2022-08-26T01:31:46.604Z,26.99
2022-08-26T01:32:50.475Z,27.00
2022-08-26T01:34:04.375Z,27.00
2022-08-26T01:35:07.462Z,27.02
2022-08-26T01:36:10.915Z,26.97
2022-08-26T01:37:19.658Z,26.98
2022-08-26T01:38:23.740Z,26.99
2022-08-26T01:39:25.791Z,26.93
2022-08-26T01:40:33.896Z,26.96
2022-08-26T01:41:37.372Z,26.98
2022-08-26T01:42:41.550Z,26.89
2022-08-26T01:43:46.490Z,26.96
2022-08-26T01:44:59.835Z,26.97
2022-08-26T01:46:02.506Z,26.98
2022-08-26T01:47:06.528Z,26.95
2022-08-26T01:48:19.280Z,26.94
2022-08-26T01:49:23.327Z,26.97
2022-08-26T01:50:31.885Z,26.96
2022-08-26T01:51:37.272Z,26.95
2022-08-26T01:52:42.831Z,26.80
2022-08-26T01:53:46.850Z,26.94
2022-08-26T01:54:50.392Z,26.93
2022-08-26T01:55:57.276Z,26.92
2022-08-26T01:56:59.786Z,26.92
2022-08-26T01:58:06.226Z,26.91
2022-08-26T01:59:12.224Z,26.92
2022-08-26T02:00:14.861Z,26.81
2022-08-26T02:01:19.289Z,26.91
2022-08-26T02:02:21.114Z,26.91
2022-08-26T02:03:23.822Z,26.90
2022-08-26T02:04:29.288Z,26.90
2022-08-26T02:05:31.387Z,26.90
2022-08-26T02:06:37.458Z,26.88
2022-08-26T02:07:40.504Z,26.90
2022-08-26T02:08:46.726Z,26.87
2022-08-26T02:09:48.565Z,26.89
2022-08-26T02:10:50.755Z,26.84
2022-08-26T02:11:56.834Z,26.89
2022-08-26T02:12:58.659Z,26.88
2022-08-26T02:14:05.524Z,26.86
2022-08-26T02:15:11.243Z,26.87
2022-08-26T02:16:17.163Z,26.86
2022-08-26T02:17:33.948Z,26.87
2022-08-26T02:18:40.259Z,26.89
2022-08-26T02:19:47.638Z,26.88
2022-08-26T02:20:51.566Z,26.89
2022-08-26T02:21:53.916Z,26.88
2022-08-26T02:22:55.861Z,26.80
2022-08-26T02:24:07.577Z,26.84
2022-08-26T02:25:15.574Z,26.87
2022-08-26T02:26:21.726Z,26.85
2022-08-26T02:27:36.155Z,26.90
2022-08-26T02:28:50.378Z,26.90
2022-08-26T02:29:57.627Z,26.89
2022-08-26T02:30:59.655Z,26.88
2022-08-26T02:32:07.201Z,26.85
2022-08-26T02:33:09.698Z,26.84
2022-08-26T02:34:19.199Z,26.82
2022-08-26T02:35:23.351Z,26.83
2022-08-26T02:36:28.733Z,26.83
2022-08-26T02:37:32.356Z,26.83
2022-08-26T02:38:36.351Z,26.79
2022-08-26T02:39:41.479Z,26.81
2022-08-26T02:40:43.985Z,26.82
2022-08-26T02:41:46.974Z,26.80
2022-08-26T02:42:50.369Z,26.81
2022-08-26T02:43:56.066Z,26.80
2022-08-26T02:44:58.125Z,26.77
2022-08-26T02:46:02.217Z,26.73
2022-08-26T02:47:04.597Z,26.80
2022-08-26T02:48:12.124Z,26.77
2022-08-26T02:49:15.010Z,26.78
2022-08-26T02:50:16.915Z,26.77
2022-08-26T02:51:19.509Z,26.78
2022-08-26T02:52:21.821Z,26.76
2022-08-26T02:53:25.453Z,26.77
2022-08-26T02:54:27.453Z,26.76
2022-08-26T02:55:29.287Z,26.72
2022-08-26T02:56:34.027Z,26.75
2022-08-26T02:57:37.529Z,26.76
2022-08-26T02:58:39.645Z,26.76
2022-08-26T02:59:41.484Z,26.74
2022-08-26T03:00:53.476Z,26.73
2022-08-26T03:01:56.262Z,26.77
2022-08-26T03:02:59.128Z,26.75
2022-08-26T03:04:03.611Z,26.73
2022-08-26T03:05:05.963Z,26.74
2022-08-26T03:06:07.906Z,26.74
2022-08-26T03:07:10.418Z,26.69
2022-08-26T03:08:12.167Z,26.73
2022-08-26T03:09:18.863Z,26.71
2022-08-26T03:10:21.882Z,26.70
2022-08-26T03:11:23.836Z,26.72
2022-08-26T03:12:26.879Z,26.71
2022-08-26T03:13:28.963Z,26.69
2022-08-26T03:14:30.806Z,26.70
2022-08-26T03:15:32.675Z,26.69
2022-08-26T03:16:36.242Z,26.69
2022-08-26T03:17:38.802Z,26.70
2022-08-26T03:18:42.600Z,26.70
2022-08-26T03:19:44.443Z,26.70
2022-08-26T03:20:46.787Z,26.68
2022-08-26T03:21:48.743Z,26.68
2022-08-26T03:22:53.365Z,26.69
2022-08-26T03:23:58.734Z,26.70
2022-08-26T03:25:00.665Z,26.69
2022-08-26T03:26:05.726Z,26.68
2022-08-26T03:27:07.615Z,26.68
2022-08-26T03:28:09.791Z,26.67
2022-08-26T03:29:30.327Z,26.68
2022-08-26T03:30:45.419Z,26.70
2022-08-26T03:31:47.731Z,26.74
2022-08-26T03:32:49.617Z,26.71
2022-08-26T03:33:52.185Z,26.65
2022-08-26T03:34:54.911Z,26.66
2022-08-26T03:35:57.435Z,26.68
2022-08-26T03:36:59.211Z,26.66
2022-08-26T03:38:03.349Z,26.65
2022-08-26T03:39:05.672Z,26.61
2022-08-26T03:40:10.491Z,26.65
2022-08-26T03:41:12.586Z,26.66
2022-08-26T03:42:15.039Z,26.66
2022-08-26T03:43:17.980Z,26.65
2022-08-26T03:44:19.984Z,26.65
2022-08-26T03:45:22.138Z,26.64
2022-08-26T03:46:24.133Z,26.63
2022-08-26T03:47:28.545Z,26.64
2022-08-26T03:48:30.410Z,26.64
2022-08-26T03:49:34.245Z,26.63
2022-08-26T03:50:36.079Z,26.55
2022-08-26T03:51:38.672Z,26.58
2022-08-26T03:52:44.066Z,26.63
2022-08-26T03:53:48.330Z,26.60
2022-08-26T03:54:50.232Z,26.61
2022-08-26T03:55:52.207Z,26.56
2022-08-26T03:56:54.105Z,26.61
2022-08-26T03:57:55.906Z,26.57
2022-08-26T03:58:57.658Z,26.60
2022-08-26T04:00:01.058Z,26.60
2022-08-26T04:01:03.119Z,26.60
2022-08-26T04:02:11.402Z,26.54
2022-08-26T04:03:33.690Z,26.63
2022-08-26T04:04:35.863Z,26.68
2022-08-26T04:05:38.083Z,26.64
2022-08-26T04:06:43.366Z,26.62
2022-08-26T04:07:46.863Z,26.54
2022-08-26T04:08:50.799Z,26.55
2022-08-26T04:09:58.767Z,26.62
2022-08-26T04:11:01.354Z,26.63
2022-08-26T04:12:04.105Z,26.55
2022-08-26T04:13:06.772Z,26.53
2022-08-26T04:14:17.649Z,26.55
2022-08-26T04:15:22.150Z,26.63
2022-08-26T04:16:24.031Z,26.60
2022-08-26T04:17:29.626Z,26.59
2022-08-26T04:18:36.928Z,26.60
2022-08-26T04:19:39.719Z,26.54
2022-08-26T04:20:41.496Z,26.58
2022-08-26T04:21:44.615Z,26.55
2022-08-26T04:22:46.518Z,26.56
2022-08-26T04:23:51.247Z,26.56
2022-08-26T04:24:53.170Z,26.56
2022-08-26T04:25:55.051Z,26.55
2022-08-26T04:26:56.958Z,26.56
2022-08-26T04:27:58.724Z,26.55
2022-08-26T04:29:01.307Z,26.56
2022-08-26T04:30:04.995Z,26.52
2022-08-26T04:31:11.279Z,26.49
2022-08-26T04:32:13.615Z,26.57
2022-08-26T04:33:16.123Z,26.55
2022-08-26T04:34:34.543Z,26.60
2022-08-26T04:35:37.222Z,26.58
2022-08-26T04:36:41.008Z,26.57
2022-08-26T04:37:44.101Z,26.57
2022-08-26T04:38:46.464Z,26.56
2022-08-26T04:39:52.596Z,26.53
2022-08-26T04:40:54.463Z,26.55
2022-08-26T04:41:57.873Z,26.54
2022-08-26T04:43:00.176Z,26.54
2022-08-26T04:44:03.658Z,26.50
2022-08-26T04:45:09.956Z,26.54
2022-08-26T04:46:15.984Z,26.55
2022-08-26T04:47:17.778Z,26.55
2022-08-26T04:48:20.894Z,26.54
2022-08-26T04:49:23.236Z,26.54
2022-08-26T04:50:27.911Z,26.55
2022-08-26T04:51:29.683Z,26.53
2022-08-26T04:52:31.530Z,26.53
2022-08-26T04:53:33.589Z,26.52
2022-08-26T04:54:35.561Z,26.53
2022-08-26T04:55:39.674Z,26.53
2022-08-26T04:56:44.114Z,26.52
2022-08-26T04:57:46.571Z,26.51
2022-08-26T04:58:49.658Z,26.53
2022-08-26T04:59:51.503Z,26.50
2022-08-26T05:00:55.142Z,26.49
2022-08-26T05:01:59.494Z,26.53
2022-08-26T05:03:01.459Z,26.52
2022-08-26T05:04:04.965Z,26.52
2022-08-26T05:05:10.573Z,26.52
2022-08-26T05:06:12.867Z,26.52
2022-08-26T05:07:14.646Z,26.52
2022-08-26T05:08:22.331Z,26.52
2022-08-26T05:09:24.743Z,26.53
2022-08-26T05:10:26.851Z,26.55
2022-08-26T05:11:28.599Z,26.55
2022-08-26T05:12:31.211Z,26.55
2022-08-26T05:13:34.802Z,26.58
2022-08-26T05:14:36.988Z,26.60
2022-08-26T05:15:39.190Z,26.62
2022-08-26T05:16:41.143Z,26.65
2022-08-26T05:17:43.081Z,26.63
2022-08-26T05:18:46.402Z,26.70
2022-08-26T05:19:49.390Z,26.73
2022-08-26T05:20:54.639Z,26.75
2022-08-26T05:21:56.724Z,26.81
2022-08-26T05:23:01.802Z,26.76
2022-08-26T05:24:04.731Z,26.87
2022-08-26T05:25:06.958Z,26.87
2022-08-26T05:26:09.035Z,26.94
2022-08-26T05:27:12.499Z,26.94
2022-08-26T05:28:17.659Z,27.01
2022-08-26T05:29:19.807Z,27.05
2022-08-26T05:30:21.992Z,27.09
2022-08-26T05:31:29.252Z,27.11
2022-08-26T05:32:31.972Z,27.13
2022-08-26T05:33:34.362Z,27.19
2022-08-26T05:34:37.535Z,27.19
2022-08-26T05:35:40.735Z,27.21
2022-08-26T05:36:42.533Z,27.29
2022-08-26T05:37:44.543Z,27.31
2022-08-26T05:38:47.042Z,27.33
2022-08-26T05:39:51.407Z,27.36
2022-08-26T05:40:53.328Z,27.42
2022-08-26T05:41:55.257Z,27.44
2022-08-26T05:42:56.989Z,27.44
2022-08-26T05:44:01.159Z,27.49
2022-08-26T05:45:03.288Z,27.54
2022-08-26T05:46:08.351Z,27.55
2022-08-26T05:47:10.219Z,27.59
2022-08-26T05:48:13.292Z,27.59
2022-08-26T05:49:16.359Z,27.64
2022-08-26T05:50:23.166Z,27.66
2022-08-26T05:51:26.359Z,27.66
2022-08-26T05:52:28.271Z,27.72
2022-08-26T05:53:30.126Z,27.74
2022-08-26T05:54:34.083Z,27.75
2022-08-26T05:55:41.726Z,27.77
2022-08-26T05:56:43.464Z,27.80
2022-08-26T05:57:48.180Z,27.77
2022-08-26T05:58:49.955Z,27.80
2022-08-26T05:59:51.951Z,27.78
2022-08-26T06:01:03.733Z,27.85
2022-08-26T06:02:07.279Z,27.87
2022-08-26T06:03:09.651Z,27.91
2022-08-26T06:04:12.432Z,27.90
2022-08-26T06:05:14.318Z,27.89
2022-08-26T06:06:37.322Z,27.97
2022-08-26T06:07:58.461Z,27.99
2022-08-26T06:09:02.473Z,28.03
2022-08-26T06:10:28.595Z,27.93
2022-08-26T06:11:28.194Z,28.04
2022-08-26T06:12:29.927Z,28.03
2022-08-26T06:13:32.179Z,28.01
2022-08-26T06:14:34.023Z,28.01
2022-08-26T06:15:39.892Z,27.99
2022-08-26T06:16:45.208Z,27.96
2022-08-26T06:17:47.004Z,28.02
2022-08-26T06:18:52.383Z,28.00
2022-08-26T06:19:54.114Z,28.02
2022-08-26T06:20:57.980Z,28.01
2022-08-26T06:22:23.346Z,28.03
2022-08-26T06:23:47.624Z,28.09
2022-08-26T06:25:08.494Z,28.12
2022-08-26T06:26:13.410Z,28.13
2022-08-26T06:27:15.425Z,28.10
2022-08-26T06:28:17.565Z,27.93
2022-08-26T06:29:24.115Z,28.06
2022-08-26T06:30:26.638Z,28.05
2022-08-26T06:31:28.929Z,28.07
2022-08-26T06:32:31.227Z,28.09
2022-08-26T06:33:33.890Z,28.08
2022-08-26T06:34:36.117Z,28.09
2022-08-26T06:35:42.463Z,28.08
2022-08-26T06:36:45.165Z,28.08
2022-08-26T06:37:48.435Z,28.08
2022-08-26T06:38:51.381Z,28.09
2022-08-26T06:39:54.374Z,28.12
2022-08-26T06:40:59.363Z,28.11
2022-08-26T06:42:03.067Z,28.13
2022-08-26T06:43:10.668Z,28.14
2022-08-26T06:44:14.810Z,28.14
2022-08-26T06:45:16.552Z,27.93
2022-08-26T06:46:21.794Z,28.13
2022-08-26T06:47:23.696Z,28.16
2022-08-26T06:48:27.062Z,28.09
2022-08-26T06:49:28.945Z,28.15
2022-08-26T06:50:31.390Z,28.11
2022-08-26T06:51:35.967Z,28.16
2022-08-26T06:52:40.843Z,28.18
2022-08-26T06:53:48.262Z,28.15
2022-08-26T06:54:50.609Z,28.20
2022-08-26T06:55:52.863Z,28.20
2022-08-26T06:56:56.989Z,28.20
2022-08-26T06:57:58.900Z,28.18
2022-08-26T06:59:00.759Z,28.22
2022-08-26T07:00:07.328Z,28.21
2022-08-26T07:01:19.962Z,28.19
2022-08-26T07:02:23.442Z,28.26
2022-08-26T07:03:25.358Z,28.25
2022-08-26T07:04:28.140Z,28.25
2022-08-26T07:05:30.286Z,28.25
2022-08-26T07:06:39.118Z,28.24
2022-08-26T07:07:40.968Z,28.27
2022-08-26T07:08:45.673Z,28.25
2022-08-26T07:09:49.265Z,28.27
2022-08-26T07:10:55.831Z,28.28
2022-08-26T07:11:58.047Z,28.28
2022-08-26T07:13:00.983Z,28.28
2022-08-26T07:14:02.854Z,28.29
2022-08-26T07:15:05.338Z,28.29
2022-08-26T07:16:14.528Z,28.29
2022-08-26T07:17:16.622Z,28.29
2022-08-26T07:18:18.645Z,28.30
2022-08-26T07:19:30.418Z,28.31
2022-08-26T07:20:33.063Z,28.32
2022-08-26T07:21:35.960Z,28.33
2022-08-26T07:22:38.625Z,28.27
2022-08-26T07:23:41.372Z,28.27
2022-08-26T07:24:44.055Z,28.31
2022-08-26T07:25:45.892Z,28.32
2022-08-26T07:26:48.021Z,28.32
2022-08-26T07:27:53.925Z,28.32
2022-08-26T07:28:58.110Z,28.32
2022-08-26T07:30:02.116Z,28.33
2022-08-26T07:31:09.661Z,28.33
2022-08-26T07:32:14.142Z,28.34
2022-08-26T07:33:17.831Z,28.26
2022-08-26T07:34:20.346Z,28.34
2022-08-26T07:35:22.263Z,28.35
2022-08-26T07:36:25.805Z,28.35
2022-08-26T07:37:28.235Z,28.35
2022-08-26T07:38:33.893Z,28.36
2022-08-26T07:39:36.256Z,28.35
2022-08-26T07:40:41.046Z,28.36
2022-08-26T07:41:43.115Z,28.36
2022-08-26T07:42:44.928Z,28.36
2022-08-26T07:43:47.351Z,28.35
2022-08-26T07:44:49.323Z,28.35
2022-08-26T07:45:51.165Z,28.35
2022-08-26T07:46:54.008Z,28.34
2022-08-26T07:47:56.226Z,28.35
2022-08-26T07:48:58.515Z,28.35
2022-08-26T07:50:00.470Z,28.33
2022-08-26T07:51:02.678Z,28.34
2022-08-26T07:52:05.755Z,28.36
2022-08-26T07:53:07.683Z,28.35
2022-08-26T07:54:12.545Z,28.37
2022-08-26T07:55:15.298Z,28.36
2022-08-26T07:56:17.274Z,28.36
2022-08-26T07:57:19.186Z,28.36
2022-08-26T07:58:21.084Z,28.32
2022-08-26T07:59:23.435Z,28.35
2022-08-26T08:00:25.478Z,28.36
2022-08-26T08:01:29.765Z,28.36
2022-08-26T08:02:33.023Z,28.35
2022-08-26T08:03:36.551Z,28.36
2022-08-26T08:04:38.404Z,28.36
2022-08-26T08:05:41.299Z,28.36
2022-08-26T08:06:44.123Z,28.37
2022-08-26T08:07:46.000Z,28.37
2022-08-26T08:08:50.838Z,28.36
2022-08-26T08:09:53.891Z,28.36
2022-08-26T08:10:56.502Z,28.31
2022-08-26T08:11:58.452Z,28.37
2022-08-26T08:13:03.371Z,28.37
2022-08-26T08:14:08.496Z,28.38
2022-08-26T08:15:15.531Z,28.31
2022-08-26T08:16:17.564Z,28.37
2022-08-26T08:17:19.433Z,28.38
2022-08-26T08:18:23.140Z,28.37
2022-08-26T08:19:25.135Z,28.38
2022-08-26T08:20:40.563Z,28.35
2022-08-26T08:21:47.103Z,28.41
2022-08-26T08:22:50.283Z,28.40
2022-08-26T08:23:55.888Z,28.40
2022-08-26T08:24:57.614Z,28.34
2022-08-26T08:26:09.253Z,28.39
2022-08-26T08:27:11.124Z,28.41
2022-08-26T08:28:13.854Z,28.40
2022-08-26T08:29:15.575Z,28.32
2022-08-26T08:30:22.896Z,28.39
2022-08-26T08:32:53.171Z,28.39
2022-08-26T08:33:55.347Z,28.43
2022-08-26T08:34:57.600Z,28.41
2022-08-26T08:36:00.050Z,28.41
2022-08-26T08:37:01.874Z,28.40
2022-08-26T08:38:05.501Z,28.36
2022-08-26T08:39:08.831Z,28.32
2022-08-26T08:40:15.435Z,28.40
2022-08-26T08:41:45.142Z,28.37
2022-08-26T08:43:02.400Z,28.49
2022-08-26T08:44:13.787Z,28.47
2022-08-26T08:45:26.166Z,28.47
2022-08-26T08:46:30.330Z,28.42
2022-08-26T08:47:43.124Z,28.44
2022-08-26T08:48:53.113Z,28.44
2022-08-26T08:50:03.418Z,28.44
2022-08-26T08:51:43.492Z,28.49
2022-08-26T08:52:56.726Z,28.48
2022-08-26T08:54:00.168Z,28.49
2022-08-26T08:55:11.055Z,28.45
2022-08-26T08:56:32.430Z,28.48
2022-08-26T08:57:53.819Z,28.48
2022-08-26T08:59:04.391Z,28.49
2022-08-26T09:00:18.061Z,28.47
2022-08-26T09:01:28.792Z,28.47
2022-08-26T09:02:34.640Z,28.47
2022-08-26T09:03:51.737Z,28.45
2022-08-26T09:05:28.572Z,28.53
2022-08-26T09:06:31.038Z,28.49
2022-08-26T09:07:40.767Z,28.47
2022-08-26T09:08:45.006Z,28.46
2022-08-26T09:09:52.754Z,28.44
2022-08-26T09:10:58.018Z,28.44
2022-08-26T09:12:01.728Z,28.43
2022-08-26T09:13:13.813Z,28.41
2022-08-26T09:14:19.208Z,28.46
2022-08-26T09:15:28.560Z,28.42
2022-08-26T09:16:46.832Z,28.45
2022-08-26T09:17:55.231Z,28.47
2022-08-26T09:18:57.155Z,28.46
2022-08-26T09:20:19.119Z,28.38
2022-08-26T09:21:26.196Z,28.48
2022-08-26T09:22:31.231Z,28.46
2022-08-26T09:23:35.852Z,28.45
2022-08-26T09:24:41.635Z,28.45
2022-08-26T09:26:59.220Z,28.46
2022-08-26T09:28:01.194Z,28.46
2022-08-26T09:29:14.494Z,28.44
2022-08-26T09:30:27.323Z,28.48
2022-08-26T09:31:32.727Z,28.48
2022-08-26T09:32:35.276Z,28.48
2022-08-26T09:33:37.150Z,28.46
2022-08-26T09:34:54.319Z,28.47
2022-08-26T09:36:39.060Z,28.51
2022-08-26T09:38:53.363Z,28.45
2022-08-26T09:40:11.104Z,28.48
2022-08-26T09:41:27.303Z,28.54
2022-08-26T09:42:29.114Z,28.55
2022-08-26T09:43:31.067Z,28.51
2022-08-26T09:44:33.617Z,28.50
2022-08-26T09:45:37.071Z,28.50
2022-08-26T09:46:46.511Z,28.48
2022-08-26T09:47:56.935Z,28.45
2022-08-26T09:49:27.491Z,28.56
2022-08-26T09:50:37.066Z,28.56
2022-08-26T09:51:40.020Z,28.54
2022-08-26T09:52:42.779Z,28.52
2022-08-26T09:53:54.595Z,28.47
2022-08-26T09:55:12.453Z,28.53
2022-08-26T09:56:36.787Z,28.58
2022-08-26T09:57:47.061Z,28.55
2022-08-26T09:58:49.376Z,28.54
2022-08-26T09:59:51.347Z,28.50
2022-08-26T10:00:56.971Z,28.50
2022-08-26T10:02:19.310Z,28.55
2022-08-26T10:03:33.335Z,28.48
2022-08-26T10:04:36.072Z,28.57
2022-08-26T10:05:56.516Z,28.53
2022-08-26T10:07:07.469Z,28.57
2022-08-26T10:08:24.537Z,28.58
2022-08-26T10:09:26.971Z,28.58
2022-08-26T10:10:35.409Z,28.50
2022-08-26T10:11:45.349Z,28.54
2022-08-26T10:13:09.446Z,28.56
2022-08-26T10:14:21.454Z,28.58
2022-08-26T10:15:26.603Z,28.57
2022-08-26T10:17:07.062Z,28.54
2022-08-26T10:18:17.549Z,28.59
2022-08-26T10:19:56.195Z,28.59
2022-08-26T10:21:02.713Z,28.63
2022-08-26T10:22:13.798Z,28.59
2022-08-26T10:23:24.810Z,28.58
2022-08-26T10:24:34.985Z,28.58
2022-08-26T10:25:54.067Z,28.58
2022-08-26T10:27:07.869Z,28.58
2022-08-26T10:28:34.036Z,28.54
2022-08-26T10:29:46.057Z,28.59
2022-08-26T10:30:58.591Z,28.55
2022-08-26T10:32:05.989Z,28.58
2022-08-26T10:33:12.443Z,28.56
2022-08-26T10:34:17.247Z,28.52
2022-08-26T10:35:19.751Z,28.50
2022-08-26T10:37:10.573Z,28.53
2022-08-26T10:38:18.583Z,28.57
2022-08-26T10:39:29.287Z,28.60
2022-08-26T10:40:41.840Z,28.60
2022-08-26T10:41:47.609Z,28.56
2022-08-26T10:43:10.098Z,28.53
2022-08-26T10:44:18.275Z,28.60
2022-08-26T10:45:25.426Z,28.47
2022-08-26T10:46:41.026Z,28.59
2022-08-26T10:48:00.391Z,28.61
2022-08-26T10:49:08.583Z,28.59
2022-08-26T10:50:10.905Z,28.60
2022-08-26T10:51:26.815Z,28.50
2022-08-26T10:52:37.979Z,28.60
2022-08-26T10:53:44.553Z,28.59
2022-08-26T10:54:52.200Z,28.59
2022-08-26T10:56:15.652Z,28.61
2022-08-26T10:57:57.631Z,28.68
2022-08-26T10:59:14.582Z,28.71
2022-08-26T11:01:00.468Z,28.70
2022-08-26T11:02:06.407Z,28.74
2022-08-26T11:03:29.864Z,28.71
2022-08-26T11:04:43.363Z,28.70
2022-08-26T11:06:19.606Z,28.76
2022-08-26T11:07:42.581Z,28.78
2022-08-26T11:08:53.291Z,28.76
2022-08-26T11:09:55.182Z,28.73
2022-08-26T11:11:00.360Z,28.70
2022-08-26T11:12:06.789Z,28.64
2022-08-26T11:13:12.286Z,28.67
2022-08-26T11:14:29.123Z,28.68
2022-08-26T11:15:32.036Z,28.72
2022-08-26T11:16:43.460Z,28.69
2022-08-26T11:17:45.811Z,28.72
2022-08-26T11:18:51.346Z,28.64
2022-08-26T11:20:02.181Z,28.69
2022-08-26T11:21:46.217Z,28.77
2022-08-26T11:22:51.011Z,28.79
2022-08-26T11:23:53.213Z,28.72
2022-08-26T11:24:55.008Z,28.74
2022-08-26T11:25:57.483Z,28.72
2022-08-26T11:26:59.358Z,28.71
2022-08-26T11:28:02.120Z,28.71
2022-08-26T11:29:04.591Z,28.68
2022-08-26T11:30:15.674Z,28.72
2022-08-26T11:31:26.729Z,28.71
2022-08-26T11:32:57.428Z,28.78
2022-08-26T11:34:03.208Z,28.77
2022-08-26T11:35:08.717Z,28.76
2022-08-26T11:36:28.671Z,28.75
2022-08-26T11:37:40.594Z,28.78
2022-08-26T11:38:43.186Z,28.77
2022-08-26T11:39:55.388Z,28.75
2022-08-26T11:41:19.991Z,28.80
2022-08-26T11:42:29.295Z,28.80
2022-08-26T11:43:32.700Z,28.75
2022-08-26T11:44:49.356Z,28.76
2022-08-26T11:46:23.827Z,28.84
2022-08-26T11:47:32.046Z,28.82
2022-08-26T11:48:36.790Z,28.79
2022-08-26T11:49:38.905Z,28.69
2022-08-26T11:50:40.728Z,28.77
2022-08-26T11:51:45.241Z,28.75
2022-08-26T11:53:07.611Z,28.76
2022-08-26T11:54:16.035Z,28.79
2022-08-26T11:55:17.978Z,28.78
2022-08-26T11:56:28.770Z,28.77
2022-08-26T11:57:41.359Z,28.77
2022-08-26T11:58:45.283Z,28.78
2022-08-26T11:59:47.693Z,28.77
2022-08-26T12:01:18.036Z,28.76
2022-08-26T12:02:20.736Z,28.82
2022-08-26T12:03:30.736Z,28.79
2022-08-26T12:04:37.781Z,28.77
2022-08-26T12:05:44.621Z,28.79
2022-08-26T12:06:51.059Z,28.77
2022-08-26T12:07:54.193Z,28.79
2022-08-26T12:09:01.170Z,28.77
2022-08-26T12:10:05.822Z,28.77
2022-08-26T12:11:20.112Z,28.73
2022-08-26T12:12:26.965Z,28.77
2022-08-26T12:13:28.879Z,28.72
2022-08-26T12:14:33.274Z,28.76
2022-08-26T12:15:35.718Z,28.76
2022-08-26T12:16:40.369Z,28.74
2022-08-26T12:17:44.007Z,28.74
2022-08-26T12:18:45.852Z,28.75
2022-08-26T12:19:47.915Z,28.74
2022-08-26T12:20:54.100Z,28.73
2022-08-26T12:22:02.238Z,28.73
2022-08-26T12:23:05.037Z,28.68
2022-08-26T12:24:08.549Z,28.76
2022-08-26T12:25:12.590Z,28.76
2022-08-26T12:26:26.660Z,28.71
2022-08-26T12:27:41.547Z,28.64
2022-08-26T12:28:50.667Z,28.79
2022-08-26T12:30:02.655Z,28.79
2022-08-26T12:31:06.170Z,28.79
2022-08-26T12:32:14.941Z,28.77
2022-08-26T12:33:22.810Z,28.78
2022-08-26T12:34:26.297Z,28.79
2022-08-26T12:35:29.400Z,28.78
2022-08-26T12:36:36.309Z,28.76
2022-08-26T12:37:44.750Z,28.76
2022-08-26T12:38:46.982Z,28.73
2022-08-26T12:39:49.290Z,28.74
2022-08-26T12:40:51.235Z,28.77
2022-08-26T12:41:56.468Z,28.76
2022-08-26T12:43:01.915Z,28.77
2022-08-26T12:44:03.672Z,28.75
2022-08-26T12:45:07.465Z,28.77
2022-08-26T12:46:16.463Z,28.77
2022-08-26T12:47:42.008Z,28.81
2022-08-26T12:48:49.079Z,28.75
2022-08-26T12:50:01.093Z,28.78
2022-08-26T12:51:06.850Z,28.80
2022-08-26T12:52:30.126Z,28.82
2022-08-26T12:53:34.431Z,28.86
2022-08-26T12:54:56.987Z,28.75
2022-08-26T12:56:03.702Z,28.86
2022-08-26T12:57:13.376Z,28.86
2022-08-26T12:58:34.510Z,28.87
2022-08-26T12:59:36.307Z,28.87
2022-08-26T13:00:41.584Z,28.83
2022-08-26T13:01:45.295Z,28.82
2022-08-26T13:02:47.304Z,28.81
2022-08-26T13:03:50.974Z,28.81
2022-08-26T13:05:00.900Z,28.79
2022-08-26T13:06:19.368Z,28.82
2022-08-26T13:07:24.858Z,28.84
2022-08-26T13:08:28.201Z,28.83
2022-08-26T13:09:31.453Z,28.82
2022-08-26T13:10:36.488Z,28.81
2022-08-26T13:11:41.060Z,28.80
2022-08-26T13:12:42.790Z,28.81
2022-08-26T13:13:45.837Z,28.81
2022-08-26T13:14:49.215Z,28.72
2022-08-26T13:15:51.056Z,28.80
2022-08-26T13:16:53.150Z,28.79
2022-08-26T13:17:54.959Z,28.80
2022-08-26T13:19:02.919Z,28.80
2022-08-26T13:20:05.066Z,28.76
2022-08-26T13:21:22.827Z,28.83
2022-08-26T13:22:25.407Z,28.82
2022-08-26T13:23:27.224Z,28.84
2022-08-26T13:24:34.106Z,28.80
2022-08-26T13:25:36.042Z,28.83
2022-08-26T13:26:43.198Z,28.79
2022-08-26T13:27:45.111Z,28.81
2022-08-26T13:29:01.115Z,28.81
2022-08-26T13:30:04.641Z,28.84
2022-08-26T13:31:06.630Z,28.82
2022-08-26T13:32:09.120Z,28.81
2022-08-26T13:33:13.747Z,28.81
2022-08-26T13:34:20.196Z,28.80
2022-08-26T13:35:22.221Z,28.82
2022-08-26T13:36:24.335Z,28.75
2022-08-26T13:37:35.217Z,28.80
2022-08-26T13:38:37.431Z,28.80
2022-08-26T13:39:39.500Z,28.77
2022-08-26T13:40:44.611Z,28.79
2022-08-26T13:41:46.467Z,28.80
2022-08-26T13:42:49.751Z,28.79
2022-08-26T13:43:53.639Z,28.81
2022-08-26T13:44:58.205Z,28.81
2022-08-26T13:46:01.590Z,28.81
2022-08-26T13:47:03.475Z,28.73
2022-08-26T13:48:06.889Z,28.79
2022-08-26T13:49:09.377Z,28.81
2022-08-26T13:50:11.143Z,28.79
2022-08-26T13:51:13.239Z,28.80
2022-08-26T13:52:15.424Z,28.80
2022-08-26T13:53:18.764Z,28.74
2022-08-26T13:54:20.593Z,28.80
2022-08-26T13:55:22.474Z,28.80
2022-08-26T13:56:27.445Z,28.77
2022-08-26T13:57:30.317Z,28.81
2022-08-26T13:58:32.223Z,28.78
2022-08-26T13:59:33.975Z,28.78
2022-08-26T14:00:37.830Z,28.80
2022-08-26T14:01:40.158Z,28.81
2022-08-26T14:02:42.029Z,28.78
2022-08-26T14:03:44.053Z,28.79
2022-08-26T14:04:45.850Z,28.81
2022-08-26T14:05:47.775Z,28.80
2022-08-26T14:06:49.772Z,28.77
2022-08-26T14:07:51.522Z,28.80
2022-08-26T14:08:53.488Z,28.76
2022-08-26T14:09:55.299Z,28.79
2022-08-26T14:10:57.286Z,28.78
2022-08-26T14:12:01.060Z,28.73
2022-08-26T14:13:04.624Z,28.78
2022-08-26T14:14:09.463Z,28.80
2022-08-26T14:15:12.574Z,28.80
2022-08-26T14:16:27.932Z,28.80